Pinewood, South Carolina
Current Conditions -  °F | °C
As of 3:58 PM on Saturday 22 Nov 2014 (Local Time) from KSSC Reporting Station
Clear Clear  
Wind Chill: 62°   Ceiling: Unl
Heat Index: 62°   Visibility: 10mi
Dew Point: 24°   Wind: 8mph
Humidity: 23%   Direction: 110°ESE
Pressure: 30.36"   Gusts: NA
Location:  33.74°N, 80.46°W
Report Text: KSSC 222058Z AUTO 11007KT 10SM CLR 17/M04 A3036 RMK AO2 SLP283 T01661045 56024 $
Loading
Personal Weather Stations






























Interactive Weather Map New forecast layout! Learn more

10-Day Weather Forecast

Advertisements
Track Severe Weather on mobile